createdAt,value
2023-05-23T00:00:14.501Z,19.80
2023-05-23T00:02:45.192Z,19.80
2023-05-23T00:05:15.574Z,19.80
2023-05-23T00:07:43.961Z,19.70
2023-05-23T00:10:12.694Z,19.70
2023-05-23T00:12:42.640Z,19.70
2023-05-23T00:15:11.462Z,19.50
2023-05-23T00:17:39.923Z,19.50
2023-05-23T00:20:11.086Z,19.30
2023-05-23T00:22:43.060Z,19.30
2023-05-23T00:25:11.798Z,19.30
2023-05-23T00:27:40.370Z,19.30
2023-05-23T00:30:10.088Z,19.30
2023-05-23T00:32:38.817Z,19.20
2023-05-23T00:35:08.367Z,19.10
2023-05-23T00:37:36.821Z,19.10
2023-05-23T00:40:08.526Z,19.00
2023-05-23T00:42:36.881Z,19.00
2023-05-23T00:45:06.793Z,19.00
2023-05-23T00:47:35.429Z,19.00
2023-05-23T00:50:05.346Z,19.00
2023-05-23T00:52:33.938Z,19.00
2023-05-23T00:55:02.467Z,19.00
2023-05-23T00:57:34.512Z,19.10
2023-05-23T01:00:03.856Z,19.00
2023-05-23T01:02:36.719Z,19.10
2023-05-23T01:05:05.978Z,19.10
2023-05-23T01:07:34.504Z,19.00
2023-05-23T01:10:03.382Z,19.20
2023-05-23T01:12:40.990Z,18.90
2023-05-23T01:15:13.396Z,18.80
2023-05-23T01:17:56.233Z,18.80
2023-05-23T01:20:29.975Z,18.90
2023-05-23T01:23:24.559Z,18.90
2023-05-23T01:26:14.760Z,18.90
2023-05-23T01:28:48.293Z,18.90
2023-05-23T01:31:18.605Z,18.90
2023-05-23T01:33:50.147Z,18.90
2023-05-23T01:36:18.655Z,18.90
2023-05-23T01:38:47.517Z,18.90
2023-05-23T01:41:16.056Z,18.90
2023-05-23T01:43:45.996Z,18.90
2023-05-23T01:46:15.245Z,18.90
2023-05-23T01:48:44.279Z,18.90
2023-05-23T01:51:12.965Z,19.00
2023-05-23T01:53:41.930Z,18.90
2023-05-23T01:56:10.685Z,18.90
2023-05-23T01:58:39.367Z,18.90
2023-05-23T02:01:09.986Z,18.90
2023-05-23T02:03:38.776Z,19.00
2023-05-23T02:06:07.560Z,18.90
2023-05-23T02:08:36.413Z,18.90
2023-05-23T02:11:04.954Z,18.90
2023-05-23T02:13:33.334Z,18.90
2023-05-23T02:16:02.052Z,18.80
2023-05-23T02:18:32.029Z,18.90
2023-05-23T02:21:00.723Z,18.90
2023-05-23T02:23:29.322Z,18.90
2023-05-23T02:25:57.876Z,18.90
2023-05-23T02:28:26.371Z,18.90
2023-05-23T02:30:54.875Z,18.80
2023-05-23T02:33:23.590Z,18.80
2023-05-23T02:35:57.190Z,18.70
2023-05-23T02:38:26.941Z,18.70
2023-05-23T02:40:57.718Z,18.60
2023-05-23T02:43:26.263Z,18.60
2023-05-23T02:45:54.791Z,18.60
2023-05-23T02:48:23.571Z,18.50
2023-05-23T02:50:52.423Z,18.50
2023-05-23T02:53:22.928Z,18.50
2023-05-23T02:55:51.509Z,18.50
2023-05-23T02:58:22.831Z,18.50
2023-05-23T03:00:51.499Z,18.50
2023-05-23T03:03:19.980Z,18.50
2023-05-23T03:05:48.812Z,18.40
2023-05-23T03:08:17.451Z,18.40
2023-05-23T03:10:47.457Z,18.30
2023-05-23T03:13:16.209Z,18.30
2023-05-23T03:15:44.577Z,18.30
2023-05-23T03:18:13.178Z,18.30
2023-05-23T03:20:42.320Z,18.30
2023-05-23T03:23:10.829Z,18.20
2023-05-23T03:25:39.776Z,18.20
2023-05-23T03:28:09.754Z,18.20
2023-05-23T03:30:38.195Z,18.20
2023-05-23T03:33:07.006Z,18.20
2023-05-23T03:35:36.341Z,18.20
2023-05-23T03:38:05.365Z,18.30
2023-05-23T03:40:34.558Z,18.30
2023-05-23T03:43:04.981Z,18.30
2023-05-23T03:45:36.431Z,18.20
2023-05-23T03:48:09.517Z,18.20
2023-05-23T03:50:37.989Z,18.20
2023-05-23T03:53:08.495Z,18.30
2023-05-23T03:55:37.892Z,18.30
2023-05-23T03:58:06.493Z,18.30
2023-05-23T04:00:36.351Z,18.30
2023-05-23T04:03:08.790Z,18.30
2023-05-23T04:05:37.737Z,18.20
2023-05-23T04:08:06.896Z,18.20
2023-05-23T04:10:35.539Z,18.20
2023-05-23T04:13:03.993Z,18.10
2023-05-23T04:15:34.364Z,18.10
2023-05-23T04:18:10.721Z,18.10
2023-05-23T04:20:39.847Z,18.10
2023-05-23T04:23:08.700Z,18.00
2023-05-23T04:25:41.074Z,18.00
2023-05-23T04:28:18.307Z,17.90
2023-05-23T04:30:49.563Z,17.80
2023-05-23T04:33:23.653Z,17.80
2023-05-23T04:35:52.955Z,17.80
2023-05-23T04:38:23.056Z,17.80
2023-05-23T04:40:52.861Z,17.80
2023-05-23T04:43:42.831Z,17.70
2023-05-23T04:46:29.891Z,17.70
2023-05-23T04:49:13.298Z,17.70
2023-05-23T04:51:42.118Z,17.60
2023-05-23T04:54:17.488Z,17.60
2023-05-23T04:56:46.340Z,17.50
2023-05-23T04:59:16.565Z,17.50
2023-05-23T05:01:45.320Z,17.50
2023-05-23T05:04:16.253Z,17.50
2023-05-23T05:06:48.191Z,17.50
2023-05-23T05:09:17.761Z,17.60
2023-05-23T05:11:46.401Z,17.30
2023-05-23T05:14:16.362Z,17.60
2023-05-23T05:16:47.126Z,17.70
2023-05-23T05:19:18.755Z,17.70
2023-05-23T05:21:48.100Z,17.70
2023-05-23T05:24:16.901Z,17.60
2023-05-23T05:26:45.964Z,17.60
2023-05-23T05:29:14.552Z,17.60
2023-05-23T05:31:45.392Z,17.50
2023-05-23T05:34:14.313Z,17.50
2023-05-23T05:36:47.945Z,17.50
2023-05-23T05:39:18.504Z,17.50
2023-05-23T05:41:47.051Z,17.50
2023-05-23T05:44:16.490Z,17.50
2023-05-23T05:46:48.537Z,17.50
2023-05-23T05:49:17.317Z,17.50
2023-05-23T05:51:49.341Z,17.50
2023-05-23T05:54:19.205Z,17.60
2023-05-23T05:56:48.728Z,17.60
2023-05-23T05:59:18.170Z,17.60
2023-05-23T06:01:46.721Z,17.60
2023-05-23T06:04:15.355Z,17.70
2023-05-23T06:06:44.302Z,17.70
2023-05-23T06:09:14.402Z,17.70
2023-05-23T06:11:42.873Z,17.70
2023-05-23T06:14:11.645Z,17.70
2023-05-23T06:16:44.408Z,17.70
2023-05-23T06:19:13.417Z,17.60
2023-05-23T06:21:42.834Z,17.60
2023-05-23T06:24:14.331Z,17.60
2023-05-23T06:26:43.354Z,17.70
2023-05-23T06:29:11.941Z,17.70
2023-05-23T06:31:40.577Z,17.70
2023-05-23T06:34:09.214Z,17.70
2023-05-23T06:36:37.774Z,17.70
2023-05-23T06:39:06.335Z,17.70
2023-05-23T06:41:36.595Z,17.70
2023-05-23T06:44:05.135Z,17.70
2023-05-23T06:46:33.709Z,17.70
2023-05-23T06:49:14.409Z,17.70
2023-05-23T06:51:45.615Z,17.70
2023-05-23T06:54:14.380Z,17.70
2023-05-23T06:56:44.350Z,17.70
2023-05-23T06:59:13.024Z,17.70
2023-05-23T07:01:41.972Z,17.70
2023-05-23T07:04:12.218Z,17.80
2023-05-23T07:06:41.409Z,17.70
2023-05-23T07:09:11.965Z,17.70
2023-05-23T07:11:43.195Z,17.70
2023-05-23T07:14:12.477Z,17.60
2023-05-23T07:16:43.725Z,17.60
2023-05-23T07:19:13.753Z,17.60
2023-05-23T07:21:51.504Z,17.60
2023-05-23T07:24:22.336Z,17.60
2023-05-23T07:26:53.208Z,17.50
2023-05-23T07:29:21.803Z,17.50
2023-05-23T07:31:53.643Z,17.50
2023-05-23T07:34:24.090Z,17.50
2023-05-23T07:36:56.493Z,17.40
2023-05-23T07:39:28.120Z,17.30
2023-05-23T07:42:00.726Z,17.40
2023-05-23T07:44:30.362Z,17.30
2023-05-23T07:46:59.235Z,17.20
2023-05-23T07:49:27.775Z,17.10
2023-05-23T07:51:56.914Z,17.20
2023-05-23T07:54:25.981Z,17.30
2023-05-23T07:57:00.360Z,17.20
2023-05-23T07:59:30.217Z,17.30
2023-05-23T08:01:59.138Z,17.40
2023-05-23T08:04:28.679Z,17.40
2023-05-23T08:07:05.152Z,17.40
2023-05-23T08:09:54.754Z,17.30
2023-05-23T08:12:25.936Z,17.20
2023-05-23T08:15:03.903Z,17.10
2023-05-23T08:17:38.441Z,17.10
2023-05-23T08:20:09.901Z,17.10
2023-05-23T08:22:38.831Z,17.00
2023-05-23T08:25:08.488Z,17.00
2023-05-23T08:27:41.156Z,17.00
2023-05-23T08:30:25.609Z,17.00
2023-05-23T08:32:55.348Z,17.00
2023-05-23T08:35:24.385Z,17.10
2023-05-23T08:37:53.388Z,17.10
2023-05-23T08:40:23.248Z,17.00
2023-05-23T08:43:12.545Z,17.10
2023-05-23T08:45:42.613Z,17.00
2023-05-23T08:48:15.124Z,16.90
2023-05-23T08:50:48.843Z,16.70
2023-05-23T08:53:22.158Z,16.70
2023-05-23T08:55:59.195Z,16.70
2023-05-23T08:58:36.753Z,16.60
2023-05-23T09:01:06.229Z,16.70
2023-05-23T09:03:37.742Z,16.70
2023-05-23T09:06:27.127Z,16.70
2023-05-23T09:08:56.309Z,16.60
2023-05-23T09:11:26.610Z,16.60
2023-05-23T09:13:57.803Z,16.50
2023-05-23T09:16:34.558Z,16.50
2023-05-23T09:19:14.876Z,16.40
2023-05-23T09:21:50.744Z,16.30
2023-05-23T09:24:37.244Z,16.40
2023-05-23T09:27:09.464Z,16.40
2023-05-23T09:29:42.114Z,16.40
2023-05-23T09:32:14.837Z,16.40
2023-05-23T09:34:44.332Z,16.30
2023-05-23T09:37:19.680Z,16.20
2023-05-23T09:39:49.725Z,16.20
2023-05-23T09:42:22.091Z,16.20
2023-05-23T09:44:52.174Z,16.20
2023-05-23T09:47:20.821Z,16.30
2023-05-23T09:49:49.605Z,16.30
2023-05-23T09:52:20.215Z,16.40
2023-05-23T09:54:49.306Z,16.50
2023-05-23T09:57:18.283Z,16.50
2023-05-23T09:59:53.580Z,16.60
2023-05-23T10:02:45.918Z,16.70
2023-05-23T10:05:25.751Z,16.70
2023-05-23T10:07:54.394Z,16.70
2023-05-23T10:10:23.066Z,16.70
2023-05-23T10:12:53.133Z,16.70
2023-05-23T10:15:28.010Z,16.70
2023-05-23T10:18:13.982Z,16.70
2023-05-23T10:20:47.217Z,16.80
2023-05-23T10:23:16.353Z,16.90
2023-05-23T10:25:45.782Z,16.90
2023-05-23T10:28:16.100Z,17.00
2023-05-23T10:30:48.003Z,17.00
2023-05-23T10:33:18.015Z,17.00
2023-05-23T10:35:57.797Z,16.80
2023-05-23T10:38:38.177Z,17.00
2023-05-23T10:41:12.792Z,17.00
2023-05-23T10:43:50.050Z,17.10
2023-05-23T10:46:22.477Z,17.10
2023-05-23T10:48:57.434Z,17.20
2023-05-23T10:51:26.857Z,17.20
2023-05-23T10:53:55.887Z,17.20
2023-05-23T10:56:25.991Z,17.30
2023-05-23T10:58:55.544Z,17.40
2023-05-23T11:01:26.281Z,17.30
2023-05-23T11:03:56.244Z,17.30
2023-05-23T11:06:39.676Z,17.30
2023-05-23T11:09:12.186Z,17.40
2023-05-23T11:12:05.310Z,17.30
2023-05-23T11:14:38.292Z,17.40
2023-05-23T11:17:19.189Z,17.40
2023-05-23T11:19:59.778Z,17.50
2023-05-23T11:22:31.565Z,17.50
2023-05-23T11:25:01.349Z,17.50
2023-05-23T11:27:32.290Z,17.50
2023-05-23T11:30:04.024Z,17.50
2023-05-23T11:32:34.286Z,17.50
2023-05-23T11:35:03.645Z,17.60
2023-05-23T11:37:32.400Z,17.60
2023-05-23T11:40:02.161Z,17.60
2023-05-23T11:42:30.617Z,17.70
2023-05-23T11:45:00.447Z,17.60
2023-05-23T11:47:28.838Z,17.60
2023-05-23T11:50:02.239Z,17.60
2023-05-23T11:52:34.493Z,17.50
2023-05-23T11:55:04.088Z,17.50
2023-05-23T11:57:32.849Z,17.60
2023-05-23T12:00:01.585Z,17.60
2023-05-23T12:02:30.145Z,17.60
2023-05-23T12:05:00.304Z,17.60
2023-05-23T12:07:28.953Z,17.60
2023-05-23T12:09:57.787Z,17.70
2023-05-23T12:12:26.384Z,17.70
2023-05-23T12:14:57.554Z,17.70
2023-05-23T12:17:26.333Z,17.70
2023-05-23T12:19:54.985Z,17.80
2023-05-23T12:22:29.735Z,17.80
2023-05-23T12:24:58.390Z,17.80
2023-05-23T12:27:31.627Z,17.80
2023-05-23T12:30:07.809Z,17.90
2023-05-23T12:32:37.156Z,17.90
2023-05-23T12:35:07.222Z,17.90
2023-05-23T12:37:43.962Z,18.00
2023-05-23T12:40:18.249Z,18.00
2023-05-23T12:42:51.902Z,18.00
2023-05-23T12:45:20.654Z,18.00
2023-05-23T12:47:51.361Z,18.10
2023-05-23T12:50:21.628Z,18.10
2023-05-23T12:52:51.701Z,18.20
2023-05-23T12:55:20.359Z,18.20
2023-05-23T12:57:48.964Z,18.30
2023-05-23T13:00:20.729Z,18.30
2023-05-23T13:02:50.440Z,18.30
2023-05-23T13:05:19.270Z,18.40
2023-05-23T13:07:47.825Z,18.40
2023-05-23T13:10:18.036Z,18.40
2023-05-23T13:12:46.579Z,18.50
2023-05-23T13:15:15.187Z,18.50
2023-05-23T13:17:49.524Z,18.40
2023-05-23T13:20:18.751Z,18.30
2023-05-23T13:22:47.366Z,18.30
2023-05-23T13:25:17.460Z,18.30
2023-05-23T13:27:48.190Z,18.30
2023-05-23T13:30:17.884Z,18.20
2023-05-23T13:32:47.853Z,18.30
2023-05-23T13:35:18.009Z,18.30
2023-05-23T13:37:46.783Z,18.30
2023-05-23T13:40:28.810Z,18.30
2023-05-23T13:42:57.683Z,18.40
2023-05-23T13:45:26.780Z,18.40
2023-05-23T13:47:55.384Z,18.40
2023-05-23T13:50:23.967Z,18.40
2023-05-23T13:52:52.512Z,18.40
2023-05-23T13:55:21.323Z,18.40
2023-05-23T13:57:51.266Z,18.50
2023-05-23T14:00:20.049Z,18.50
2023-05-23T14:02:48.503Z,18.50
2023-05-23T14:05:17.764Z,18.40
2023-05-23T14:07:47.582Z,18.40
2023-05-23T14:10:17.550Z,18.30
2023-05-23T14:12:46.194Z,18.30
2023-05-23T14:15:16.070Z,18.30
2023-05-23T14:17:44.688Z,18.30
2023-05-23T14:20:13.801Z,18.40
2023-05-23T14:22:42.358Z,18.40
2023-05-23T14:25:11.462Z,18.40
2023-05-23T14:27:40.321Z,18.40
2023-05-23T14:30:10.963Z,18.50
2023-05-23T14:32:41.263Z,18.50
2023-05-23T14:35:12.278Z,18.60
2023-05-23T14:37:41.242Z,18.50
2023-05-23T14:40:11.342Z,18.50
2023-05-23T14:42:39.953Z,18.50
2023-05-23T14:45:09.224Z,18.60
2023-05-23T14:47:37.977Z,18.60
2023-05-23T14:50:09.597Z,18.60
2023-05-23T14:52:38.278Z,18.70
2023-05-23T14:55:07.806Z,18.70
2023-05-23T14:57:36.276Z,18.70
2023-05-23T15:00:06.030Z,18.70
2023-05-23T15:02:34.768Z,18.70
2023-05-23T15:05:03.419Z,18.70
2023-05-23T15:07:33.435Z,18.80
2023-05-23T15:10:02.484Z,18.80
2023-05-23T15:12:31.208Z,18.80
2023-05-23T15:15:03.783Z,18.90
2023-05-23T15:17:33.408Z,18.90
2023-05-23T15:20:03.915Z,19.00
2023-05-23T15:22:39.836Z,19.00
2023-05-23T15:25:09.887Z,19.10
2023-05-23T15:27:38.618Z,19.10
2023-05-23T15:30:09.793Z,19.20
2023-05-23T15:32:38.727Z,19.20
2023-05-23T15:35:08.716Z,19.30
2023-05-23T15:37:38.841Z,19.40
2023-05-23T15:40:08.422Z,19.50
2023-05-23T15:42:37.293Z,19.60
2023-05-23T15:45:06.874Z,19.80
2023-05-23T15:47:35.618Z,20.00
2023-05-23T15:50:04.704Z,20.20
2023-05-23T15:52:33.295Z,20.20
2023-05-23T15:55:05.650Z,20.20
2023-05-23T15:57:34.270Z,20.20
2023-05-23T16:00:02.760Z,20.10
2023-05-23T16:02:40.339Z,20.00
2023-05-23T16:05:09.318Z,19.90
2023-05-23T16:07:37.914Z,19.90
2023-05-23T16:10:08.717Z,19.80
2023-05-23T16:12:37.178Z,19.80
2023-05-23T16:15:06.852Z,19.50
2023-05-23T16:17:35.471Z,19.90
2023-05-23T16:20:04.489Z,19.80
2023-05-23T16:22:33.153Z,19.90
2023-05-23T16:25:01.755Z,19.90
2023-05-23T16:27:31.712Z,20.00
2023-05-23T16:30:00.217Z,20.00
2023-05-23T16:32:29.297Z,20.00
2023-05-23T16:34:57.685Z,20.10
2023-05-23T16:37:26.300Z,20.10
2023-05-23T16:39:55.089Z,20.20
2023-05-23T16:42:23.564Z,20.00
2023-05-23T16:44:54.345Z,20.00
2023-05-23T16:47:22.862Z,20.00
2023-05-23T16:49:51.341Z,20.00
2023-05-23T16:52:19.814Z,20.00
2023-05-23T16:54:48.311Z,20.00
2023-05-23T16:57:16.864Z,19.80
2023-05-23T16:59:45.430Z,19.70
2023-05-23T17:02:16.130Z,19.60
2023-05-23T17:04:44.898Z,19.50
2023-05-23T17:07:13.533Z,19.40
2023-05-23T17:09:41.952Z,19.40
2023-05-23T17:12:12.461Z,19.40
2023-05-23T17:14:41.080Z,19.40
2023-05-23T17:17:09.692Z,19.40
2023-05-23T17:19:39.747Z,19.40
2023-05-23T17:22:08.422Z,19.40
2023-05-23T17:24:37.810Z,19.30
2023-05-23T17:27:07.004Z,19.20
2023-05-23T17:29:35.591Z,19.20
2023-05-23T17:32:04.297Z,19.20
2023-05-23T17:34:32.938Z,19.20
2023-05-23T17:37:02.884Z,19.20
2023-05-23T17:39:31.421Z,19.20
2023-05-23T17:42:01.058Z,19.20
2023-05-23T17:44:29.608Z,19.10
2023-05-23T17:46:58.637Z,19.10
2023-05-23T17:49:27.295Z,19.00
2023-05-23T17:51:56.813Z,19.00
2023-05-23T17:54:26.681Z,19.00
2023-05-23T17:56:55.158Z,18.90
2023-05-23T17:59:23.845Z,18.90
2023-05-23T18:01:52.480Z,18.80
2023-05-23T18:04:20.985Z,18.70
2023-05-23T18:06:49.669Z,18.70
2023-05-23T18:09:18.601Z,18.60
2023-05-23T18:11:48.605Z,18.60
2023-05-23T18:14:17.043Z,18.50
2023-05-23T18:16:45.612Z,18.40
2023-05-23T18:19:14.345Z,18.40
2023-05-23T18:21:42.971Z,18.40
2023-05-23T18:24:11.966Z,18.30
2023-05-23T18:26:43.162Z,18.30
2023-05-23T18:29:13.302Z,18.30
2023-05-23T18:31:41.901Z,18.30
2023-05-23T18:34:10.504Z,18.30
2023-05-23T18:36:39.375Z,18.30
2023-05-23T18:39:08.551Z,18.30
2023-05-23T18:41:37.244Z,18.20
2023-05-23T18:44:05.995Z,18.20
2023-05-23T18:46:36.475Z,18.20
2023-05-23T18:49:05.079Z,18.20
2023-05-23T18:51:34.212Z,18.20
2023-05-23T18:54:02.932Z,18.20
2023-05-23T18:56:31.651Z,18.20
2023-05-23T18:59:00.405Z,18.10
2023-05-23T19:01:29.059Z,18.10
2023-05-23T19:03:59.038Z,18.30
2023-05-23T19:06:27.983Z,18.10
2023-05-23T19:08:56.525Z,18.00
2023-05-23T19:11:25.408Z,18.00
2023-05-23T19:13:53.943Z,17.90
2023-05-23T19:16:22.476Z,17.90
2023-05-23T19:18:51.621Z,17.80
2023-05-23T19:21:22.075Z,17.80
2023-05-23T19:23:50.738Z,17.80
2023-05-23T19:26:20.477Z,17.80
2023-05-23T19:28:49.354Z,17.80
2023-05-23T19:31:18.114Z,17.80
2023-05-23T19:33:46.786Z,17.80
2023-05-23T19:36:15.312Z,17.80
2023-05-23T19:38:45.335Z,17.80
2023-05-23T19:41:13.804Z,17.70
2023-05-23T19:43:42.321Z,17.80
2023-05-23T19:46:10.936Z,17.70
2023-05-23T19:48:39.536Z,17.70
2023-05-23T19:51:08.075Z,17.70
2023-05-23T19:53:36.617Z,17.70
2023-05-23T19:56:07.083Z,17.60
2023-05-23T19:58:36.320Z,17.60
2023-05-23T20:01:05.205Z,17.50
2023-05-23T20:03:34.204Z,17.50
2023-05-23T20:06:02.779Z,17.50
2023-05-23T20:08:31.374Z,17.50
2023-05-23T20:11:00.508Z,17.50
2023-05-23T20:13:31.091Z,17.50
2023-05-23T20:15:59.777Z,17.40
2023-05-23T20:18:28.322Z,17.40
2023-05-23T20:20:56.910Z,17.40
2023-05-23T20:23:25.430Z,17.40
2023-05-23T20:25:54.048Z,17.40
2023-05-23T20:28:22.571Z,17.40
2023-05-23T20:30:52.723Z,17.30
2023-05-23T20:33:21.981Z,17.30
2023-05-23T20:35:50.569Z,17.30
2023-05-23T20:38:20.086Z,17.20
2023-05-23T20:40:52.115Z,17.20
2023-05-23T20:43:22.377Z,17.10
2023-05-23T20:45:52.305Z,17.10
2023-05-23T20:48:20.832Z,17.10
2023-05-23T20:50:49.460Z,17.00
2023-05-23T20:53:17.952Z,17.00
2023-05-23T20:55:46.361Z,16.60
2023-05-23T20:58:14.962Z,16.90
2023-05-23T21:00:43.697Z,17.00
2023-05-23T21:03:13.793Z,16.90
2023-05-23T21:05:42.829Z,16.90
2023-05-23T21:08:11.593Z,16.90
2023-05-23T21:10:40.183Z,16.90
2023-05-23T21:13:09.091Z,16.80
2023-05-23T21:15:37.588Z,16.80
2023-05-23T21:18:06.246Z,16.80
2023-05-23T21:20:36.312Z,16.80
2023-05-23T21:23:04.822Z,16.70
2023-05-23T21:25:33.415Z,16.80
2023-05-23T21:28:01.895Z,16.70
2023-05-23T21:30:30.429Z,16.60
2023-05-23T21:32:59.239Z,16.60
2023-05-23T21:35:28.028Z,16.60
2023-05-23T21:37:58.085Z,16.60
2023-05-23T21:40:27.742Z,16.50
2023-05-23T21:42:56.232Z,16.50
2023-05-23T21:45:24.667Z,16.50
2023-05-23T21:47:53.104Z,16.50
2023-05-23T21:50:21.789Z,16.40
2023-05-23T21:52:50.483Z,16.40
2023-05-23T21:55:20.333Z,16.40
2023-05-23T21:57:48.832Z,16.40
2023-05-23T22:00:19.808Z,16.30
2023-05-23T22:02:48.512Z,16.30
2023-05-23T22:05:17.214Z,16.30
2023-05-23T22:07:45.911Z,16.30
2023-05-23T22:10:14.727Z,16.30
2023-05-23T22:12:44.480Z,16.00
2023-05-23T22:15:13.199Z,16.30
2023-05-23T22:17:43.608Z,16.30
2023-05-23T22:20:14.669Z,16.30
2023-05-23T22:22:43.519Z,16.30
2023-05-23T22:25:12.257Z,16.60
2023-05-23T22:27:41.099Z,16.30
2023-05-23T22:30:12.244Z,16.20
2023-05-23T22:32:40.916Z,16.20
2023-05-23T22:35:10.310Z,16.20
2023-05-23T22:37:38.940Z,16.20
2023-05-23T22:40:10.000Z,16.20
2023-05-23T22:42:40.025Z,16.20
2023-05-23T22:45:11.505Z,16.20
2023-05-23T22:47:41.643Z,16.20
2023-05-23T22:50:10.997Z,16.20
2023-05-23T22:52:40.434Z,16.20
2023-05-23T22:55:09.850Z,16.10
2023-05-23T22:57:38.387Z,16.10
2023-05-23T23:00:08.249Z,16.10
2023-05-23T23:02:38.148Z,16.10
2023-05-23T23:05:07.495Z,16.10
2023-05-23T23:07:35.990Z,16.20
2023-05-23T23:10:04.564Z,16.10
2023-05-23T23:12:33.018Z,16.10
2023-05-23T23:15:01.572Z,16.10
2023-05-23T23:17:30.074Z,16.00
2023-05-23T23:19:59.930Z,16.00
2023-05-23T23:22:28.532Z,16.00
2023-05-23T23:24:57.024Z,15.90
2023-05-23T23:27:30.808Z,15.90
2023-05-23T23:29:59.496Z,15.90
2023-05-23T23:32:28.016Z,15.90
2023-05-23T23:34:56.597Z,15.80
2023-05-23T23:37:26.372Z,15.80
2023-05-23T23:39:54.872Z,15.70
2023-05-23T23:42:23.366Z,15.70
2023-05-23T23:44:51.727Z,15.60
2023-05-23T23:47:20.149Z,15.60
2023-05-23T23:49:48.618Z,15.60
2023-05-23T23:52:17.678Z,15.60
2023-05-23T23:54:47.573Z,15.60
2023-05-23T23:57:15.969Z,15.50
2023-05-23T23:59:44.735Z,15.50
